createdAt,value
2023-02-15T00:01:55.972Z,1.88
2023-02-15T00:04:27.549Z,1.84
2023-02-15T00:06:54.336Z,1.66
2023-02-15T00:09:22.800Z,0.40
2023-02-15T00:11:50.843Z,1.42
2023-02-15T00:14:23.968Z,1.73
2023-02-15T00:16:52.837Z,1.12
2023-02-15T00:19:22.429Z,1.20
2023-02-15T00:21:50.104Z,0.82
2023-02-15T00:24:20.411Z,0.99
2023-02-15T00:26:51.226Z,0.53
2023-02-15T00:29:21.283Z,0.09
2023-02-15T00:31:48.525Z,1.63
2023-02-15T00:34:21.489Z,0.36
2023-02-15T00:36:48.350Z,1.63
2023-02-15T00:39:16.819Z,0.22
2023-02-15T00:41:44.400Z,1.69
2023-02-15T00:44:14.028Z,0.28
2023-02-15T00:46:42.867Z,1.60
2023-02-15T00:49:12.687Z,0.85
2023-02-15T00:51:40.251Z,0.94
2023-02-15T00:54:10.012Z,1.40
2023-02-15T00:56:37.046Z,1.35
2023-02-15T00:59:11.799Z,1.54
2023-02-15T01:01:38.720Z,0.47
2023-02-15T01:04:07.015Z,0.35
2023-02-15T01:06:34.137Z,1.46
2023-02-15T01:09:01.224Z,1.30
2023-02-15T01:11:28.079Z,1.51
2023-02-15T01:13:57.505Z,1.84
2023-02-15T01:16:25.829Z,1.85
2023-02-15T01:18:53.021Z,0.77
2023-02-15T01:21:24.053Z,1.70
2023-02-15T01:23:50.993Z,1.57
2023-02-15T01:26:19.582Z,1.85
2023-02-15T01:28:47.129Z,1.41
2023-02-15T01:31:16.188Z,1.80
2023-02-15T01:33:43.227Z,1.56
2023-02-15T01:36:10.328Z,1.43
2023-02-15T01:38:38.497Z,1.37
2023-02-15T01:41:05.287Z,1.61
2023-02-15T01:43:41.440Z,1.42
2023-02-15T01:46:10.054Z,1.53
2023-02-15T01:48:41.858Z,1.57
2023-02-15T01:51:10.116Z,1.15
2023-02-15T01:53:43.737Z,1.41
2023-02-15T01:56:14.617Z,1.53
2023-02-15T01:58:43.071Z,1.52
2023-02-15T02:01:10.103Z,1.48
2023-02-15T02:03:44.243Z,1.42
2023-02-15T02:06:11.037Z,0.71
2023-02-15T02:08:39.239Z,1.37
2023-02-15T02:11:11.633Z,1.16
2023-02-15T02:13:39.048Z,1.10
2023-02-15T02:16:12.653Z,1.43
2023-02-15T02:18:53.836Z,1.37
2023-02-15T02:22:03.600Z,0.81
2023-02-15T02:24:57.477Z,0.98
2023-02-15T02:27:48.001Z,0.28
2023-02-15T02:30:56.273Z,0.74
2023-02-15T02:33:52.478Z,0.81
2023-02-15T02:36:26.569Z,1.13
2023-02-15T02:39:07.414Z,1.09
2023-02-15T02:41:46.808Z,0.52
2023-02-15T02:44:24.464Z,-0.23
2023-02-15T02:46:55.693Z,-0.43
2023-02-15T02:49:39.908Z,0.40
2023-02-15T02:52:08.497Z,-0.29
2023-02-15T02:54:39.679Z,0.93
2023-02-15T02:57:08.815Z,0.83
2023-02-15T02:59:42.899Z,0.07
2023-02-15T03:02:14.714Z,0.64
2023-02-15T03:04:48.814Z,0.21
2023-02-15T03:07:22.168Z,0.54
2023-02-15T03:09:53.249Z,0.89
2023-02-15T03:12:28.187Z,-0.02
2023-02-15T03:15:01.597Z,0.85
2023-02-15T03:17:32.634Z,-0.23
2023-02-15T03:20:13.473Z,0.79
2023-02-15T03:22:46.488Z,0.78
2023-02-15T03:25:19.476Z,0.53
2023-02-15T03:27:50.172Z,-0.55
2023-02-15T03:30:22.312Z,0.20
2023-02-15T03:32:53.710Z,0.67
2023-02-15T03:35:27.627Z,0.64
2023-02-15T03:38:00.280Z,0.77
2023-02-15T03:40:32.610Z,0.60
2023-02-15T03:43:04.427Z,0.75
2023-02-15T03:45:34.553Z,0.40
2023-02-15T03:48:02.905Z,0.79
2023-02-15T03:50:34.588Z,-0.08
2023-02-15T03:53:04.929Z,-0.58
2023-02-15T03:55:34.184Z,0.77
2023-02-15T03:58:01.350Z,0.76
2023-02-15T04:00:28.775Z,-0.29
2023-02-15T04:03:24.410Z,-0.30
2023-02-15T04:05:53.214Z,-0.02
2023-02-15T04:08:20.253Z,-0.41
2023-02-15T04:10:46.949Z,-0.21
2023-02-15T04:13:13.803Z,-0.05
2023-02-15T04:15:44.038Z,0.15
2023-02-15T04:18:12.049Z,-0.07
2023-02-15T04:20:39.377Z,0.63
2023-02-15T04:23:12.127Z,0.60
2023-02-15T04:25:40.006Z,-0.61
2023-02-15T04:28:07.342Z,-0.49
2023-02-15T04:30:40.465Z,-0.26
2023-02-15T04:33:12.929Z,-0.85
2023-02-15T04:35:40.111Z,-0.44
2023-02-15T04:38:08.682Z,-0.03
2023-02-15T04:40:36.004Z,-0.20
2023-02-15T04:43:04.969Z,0.50
2023-02-15T04:45:31.762Z,0.21
2023-02-15T04:48:01.084Z,-0.09
2023-02-15T04:50:27.783Z,0.48
2023-02-15T04:52:55.015Z,0.57
2023-02-15T04:55:23.183Z,0.43
2023-02-15T04:57:53.037Z,0.42
2023-02-15T05:00:20.509Z,0.57
2023-02-15T05:02:47.259Z,0.48
2023-02-15T05:05:14.293Z,0.58
2023-02-15T05:07:41.702Z,0.30
2023-02-15T05:10:10.748Z,0.58
2023-02-15T05:12:39.389Z,0.30
2023-02-15T05:15:07.020Z,-0.25
2023-02-15T05:17:33.794Z,-0.18
2023-02-15T05:20:01.354Z,0.26
2023-02-15T05:22:31.400Z,-0.83
2023-02-15T05:24:59.337Z,-1.04
2023-02-15T05:27:28.575Z,0.58
2023-02-15T05:29:57.519Z,-0.02
2023-02-15T05:32:24.848Z,0.55
2023-02-15T05:34:52.271Z,0.54
2023-02-15T05:37:22.483Z,-0.09
2023-02-15T05:39:49.558Z,0.52
2023-02-15T05:42:53.595Z,0.22
2023-02-15T05:45:29.504Z,-0.92
2023-02-15T05:47:56.286Z,-0.62
2023-02-15T05:50:23.021Z,-0.23
2023-02-15T05:52:52.311Z,0.30
2023-02-15T05:55:19.996Z,-0.72
2023-02-15T05:57:49.953Z,0.59
2023-02-15T06:00:18.944Z,0.24
2023-02-15T06:02:48.516Z,-0.21
2023-02-15T06:05:15.440Z,0.38
2023-02-15T06:07:46.831Z,0.56
2023-02-15T06:10:14.566Z,0.60
2023-02-15T06:12:41.239Z,0.61
2023-02-15T06:15:11.346Z,0.49
2023-02-15T06:17:38.302Z,0.65
2023-02-15T06:20:08.643Z,0.66
2023-02-15T06:22:36.144Z,0.34
2023-02-15T06:25:03.244Z,0.40
2023-02-15T06:27:30.896Z,0.74
2023-02-15T06:29:57.998Z,0.61
2023-02-15T06:32:24.990Z,0.65
2023-02-15T06:34:53.250Z,0.86
2023-02-15T06:37:25.678Z,0.45
2023-02-15T06:39:52.439Z,0.06
2023-02-15T06:42:19.717Z,0.91
2023-02-15T06:44:46.725Z,0.91
2023-02-15T06:47:13.715Z,1.08
2023-02-15T06:49:40.592Z,1.05
2023-02-15T06:52:07.570Z,0.68
2023-02-15T06:54:35.986Z,0.22
2023-02-15T06:57:03.045Z,0.41
2023-02-15T06:59:32.042Z,1.23
2023-02-15T07:01:59.222Z,1.26
2023-02-15T07:04:29.476Z,0.15
2023-02-15T07:06:57.199Z,1.30
2023-02-15T07:09:26.396Z,1.32
2023-02-15T07:11:54.708Z,1.32
2023-02-15T07:14:21.576Z,1.38
2023-02-15T07:16:48.322Z,1.35
2023-02-15T07:19:15.345Z,1.08
2023-02-15T07:21:42.175Z,1.46
2023-02-15T07:24:08.941Z,1.48
2023-02-15T07:26:36.692Z,1.26
2023-02-15T07:29:08.272Z,1.54
2023-02-15T07:31:35.436Z,1.56
2023-02-15T07:34:02.477Z,1.26
2023-02-15T07:36:29.830Z,1.64
2023-02-15T07:38:56.874Z,1.68
2023-02-15T07:41:24.078Z,1.13
2023-02-15T07:43:50.965Z,1.77
2023-02-15T07:46:19.739Z,1.81
2023-02-15T07:48:48.634Z,1.12
2023-02-15T07:51:18.632Z,1.40
2023-02-15T07:53:47.715Z,1.72
2023-02-15T07:56:16.664Z,1.30
2023-02-15T07:58:44.552Z,1.25
2023-02-15T08:01:11.449Z,2.05
2023-02-15T08:03:40.289Z,1.22
2023-02-15T08:06:07.803Z,2.12
2023-02-15T08:08:35.753Z,1.42
2023-02-15T08:11:04.575Z,2.24
2023-02-15T08:13:31.348Z,1.22
2023-02-15T08:15:58.166Z,1.59
2023-02-15T08:18:25.167Z,1.26
2023-02-15T08:20:53.358Z,2.33
2023-02-15T08:23:20.538Z,1.98
2023-02-15T08:25:47.804Z,1.21
2023-02-15T08:28:15.080Z,2.62
2023-02-15T08:30:41.938Z,2.44
2023-02-15T08:33:08.733Z,2.43
2023-02-15T08:35:35.667Z,2.78
2023-02-15T08:38:03.951Z,2.81
2023-02-15T08:40:30.722Z,2.22
2023-02-15T08:42:57.709Z,3.03
2023-02-15T08:45:24.642Z,2.94
2023-02-15T08:47:51.688Z,1.78
2023-02-15T08:50:18.986Z,2.75
2023-02-15T08:52:45.975Z,3.15
2023-02-15T08:55:14.835Z,3.36
2023-02-15T08:57:48.424Z,3.41
2023-02-15T09:00:20.221Z,3.07
2023-02-15T09:02:47.019Z,2.40
2023-02-15T09:05:17.799Z,2.84
2023-02-15T09:07:47.891Z,3.23
2023-02-15T09:10:20.277Z,3.45
2023-02-15T09:12:47.625Z,3.15
2023-02-15T09:15:15.067Z,3.92
2023-02-15T09:17:47.271Z,4.03
2023-02-15T09:20:20.789Z,4.07
2023-02-15T09:22:55.053Z,3.97
2023-02-15T09:25:35.143Z,3.92
2023-02-15T09:28:02.264Z,4.37
2023-02-15T09:30:29.400Z,3.45
2023-02-15T09:32:56.646Z,4.48
2023-02-15T09:35:23.493Z,4.28
2023-02-15T09:37:51.218Z,4.41
2023-02-15T09:40:19.175Z,3.95
2023-02-15T09:43:08.396Z,4.29
2023-02-15T09:45:52.450Z,5.05
2023-02-15T09:48:40.967Z,4.97
2023-02-15T09:51:37.525Z,4.39
2023-02-15T09:54:16.559Z,5.31
2023-02-15T09:56:51.135Z,5.47
2023-02-15T09:59:30.816Z,5.57
2023-02-15T10:02:12.205Z,5.64
2023-02-15T10:04:51.169Z,5.71
2023-02-15T10:07:33.142Z,5.50
2023-02-15T10:10:13.475Z,5.73
2023-02-15T10:13:23.204Z,5.88
2023-02-15T10:16:17.790Z,6.08
2023-02-15T10:18:56.885Z,6.20
2023-02-15T10:21:35.630Z,6.26
2023-02-15T10:24:48.736Z,6.38
2023-02-15T10:27:21.082Z,6.39
2023-02-15T10:29:59.963Z,6.51
2023-02-15T10:40:11.739Z,6.97
2023-02-15T10:43:32.512Z,6.44
2023-02-15T10:50:02.661Z,6.35
2023-02-15T10:56:29.450Z,6.66
2023-02-15T11:12:45.790Z,8.16
2023-02-15T11:24:54.907Z,8.72
2023-02-15T11:27:25.395Z,9.01
2023-02-15T11:33:29.576Z,9.39
2023-02-15T11:36:02.130Z,9.82
2023-02-15T11:38:38.919Z,9.99
2023-02-15T11:41:14.766Z,10.12
2023-02-15T11:43:47.400Z,10.08
2023-02-15T11:46:17.084Z,10.44
2023-02-15T11:49:01.694Z,10.19
2023-02-15T11:51:28.827Z,10.39
2023-02-15T11:53:57.639Z,9.71
2023-02-15T11:56:25.915Z,10.48
2023-02-15T11:59:01.301Z,10.89
2023-02-15T12:01:32.835Z,11.01
2023-02-15T12:04:04.184Z,10.68
2023-02-15T12:06:49.047Z,11.08
2023-02-15T12:09:31.327Z,10.77
2023-02-15T12:12:22.430Z,11.29
2023-02-15T12:14:53.322Z,10.52
2023-02-15T12:17:25.998Z,11.03
2023-02-15T12:19:56.165Z,11.14
2023-02-15T12:22:28.676Z,10.88
2023-02-15T12:25:00.627Z,11.32
2023-02-15T12:27:30.271Z,11.06
2023-02-15T12:30:03.896Z,11.94
2023-02-15T12:32:37.316Z,12.19
2023-02-15T12:35:23.091Z,11.20
2023-02-15T12:38:32.581Z,11.56
2023-02-15T12:41:04.139Z,12.19
2023-02-15T12:43:46.614Z,11.60
2023-02-15T12:46:25.132Z,11.70
2023-02-15T12:49:10.824Z,12.61
2023-02-15T12:51:46.064Z,12.64
2023-02-15T12:54:38.985Z,12.51
2023-02-15T12:57:32.868Z,12.50
2023-02-15T13:00:04.605Z,11.84
2023-02-15T13:02:47.166Z,12.02
2023-02-15T13:05:24.050Z,12.28
2023-02-15T13:07:54.427Z,12.74
2023-02-15T13:10:27.933Z,12.37
2023-02-15T13:12:57.731Z,11.94
2023-02-15T13:15:37.925Z,12.71
2023-02-15T13:18:12.102Z,12.09
2023-02-15T13:20:45.666Z,11.92
2023-02-15T13:23:26.538Z,12.74
2023-02-15T13:25:59.070Z,11.80
2023-02-15T13:28:39.370Z,12.75
2023-02-15T13:31:16.109Z,12.22
2023-02-15T13:33:50.243Z,11.61
2023-02-15T13:36:24.920Z,11.52
2023-02-15T13:39:15.474Z,12.33
2023-02-15T13:41:55.444Z,11.89
2023-02-15T13:44:42.844Z,11.47
2023-02-15T13:47:42.805Z,12.33
2023-02-15T13:50:36.206Z,12.32
2023-02-15T13:53:25.957Z,11.49
2023-02-15T13:56:07.960Z,12.42
2023-02-15T13:59:04.949Z,11.59
2023-02-15T14:01:46.904Z,11.40
2023-02-15T14:04:41.956Z,11.68
2023-02-15T14:07:32.273Z,12.42
2023-02-15T14:10:11.780Z,12.34
2023-02-15T14:12:53.311Z,11.30
2023-02-15T14:15:27.363Z,12.32
2023-02-15T14:18:05.374Z,11.79
2023-02-15T14:20:46.110Z,12.30
2023-02-15T14:23:22.532Z,11.23
2023-02-15T14:25:56.034Z,11.76
2023-02-15T14:28:30.068Z,12.03
2023-02-15T14:30:57.785Z,11.14
2023-02-15T14:33:40.193Z,12.03
2023-02-15T14:36:17.471Z,11.01
2023-02-15T14:38:56.407Z,11.07
2023-02-15T14:41:33.211Z,11.79
2023-02-15T14:44:10.240Z,11.75
2023-02-15T14:46:49.303Z,12.21
2023-02-15T14:49:27.779Z,12.40
2023-02-15T14:51:59.804Z,12.22
2023-02-15T14:54:55.273Z,13.26
2023-02-15T14:57:25.128Z,13.32
2023-02-15T14:59:58.162Z,13.46
2023-02-15T15:02:29.183Z,13.34
2023-02-15T15:05:03.512Z,13.26
2023-02-15T15:07:38.663Z,13.07
2023-02-15T15:10:28.376Z,12.30
2023-02-15T15:12:57.994Z,12.48
2023-02-15T15:15:35.349Z,12.47
2023-02-15T15:18:05.215Z,11.97
2023-02-15T15:20:46.635Z,12.03
2023-02-15T15:23:44.750Z,11.98
2023-02-15T15:26:31.378Z,11.85
2023-02-15T15:29:02.858Z,11.59
2023-02-15T15:31:46.106Z,11.77
2023-02-15T15:34:44.793Z,11.74
2023-02-15T15:37:44.010Z,11.71
2023-02-15T15:40:49.566Z,11.63
2023-02-15T15:43:38.072Z,11.46
2023-02-15T15:46:24.739Z,11.56
2023-02-15T15:48:53.296Z,11.50
2023-02-15T15:51:24.410Z,11.44
2023-02-15T15:53:52.546Z,10.84
2023-02-15T15:56:25.526Z,10.86
2023-02-15T15:58:55.069Z,11.18
2023-02-15T16:01:27.806Z,11.07
2023-02-15T16:03:56.975Z,10.28
2023-02-15T16:06:35.665Z,10.86
2023-02-15T16:09:17.609Z,10.77
2023-02-15T16:16:14.068Z,9.29
2023-02-15T16:19:16.345Z,10.44
2023-02-15T16:21:49.589Z,9.28
2023-02-15T16:24:33.792Z,9.51
2023-02-15T16:27:23.948Z,10.14
2023-02-15T16:29:56.059Z,9.71
2023-02-15T16:32:26.564Z,8.88
2023-02-15T16:34:59.180Z,9.34
2023-02-15T16:37:32.536Z,9.36
2023-02-15T16:39:59.795Z,9.52
2023-02-15T16:42:27.154Z,9.02
2023-02-15T16:44:58.468Z,9.44
2023-02-15T16:47:38.349Z,9.41
2023-02-15T16:50:18.502Z,8.25
2023-02-15T16:52:46.873Z,9.23
2023-02-15T16:55:23.003Z,8.34
2023-02-15T16:57:50.620Z,9.17
2023-02-15T17:00:27.682Z,9.13
2023-02-15T17:03:27.784Z,7.86
2023-02-15T17:06:27.773Z,8.34
2023-02-15T17:09:04.491Z,7.84
2023-02-15T17:11:36.733Z,7.82
2023-02-15T17:14:20.467Z,8.67
2023-02-15T17:16:53.326Z,8.33
2023-02-15T17:19:25.496Z,7.70
2023-02-15T17:21:55.406Z,8.70
2023-02-15T17:24:38.554Z,8.03
2023-02-15T17:27:16.263Z,7.60
2023-02-15T17:30:01.084Z,7.78
2023-02-15T17:32:30.930Z,8.45
2023-02-15T17:35:21.878Z,7.87
2023-02-15T17:37:52.014Z,7.55
2023-02-15T17:40:25.588Z,8.02
2023-02-15T17:42:54.031Z,7.26
2023-02-15T17:45:28.163Z,8.31
2023-02-15T17:47:55.807Z,8.28
2023-02-15T17:50:26.675Z,8.10
2023-02-15T17:52:57.219Z,7.34
2023-02-15T17:55:25.025Z,7.88
2023-02-15T17:57:52.106Z,8.08
2023-02-15T18:00:19.360Z,7.89
2023-02-15T18:02:48.422Z,8.03
2023-02-15T18:05:16.681Z,7.99
2023-02-15T18:07:49.890Z,8.00
2023-02-15T18:10:18.863Z,7.26
2023-02-15T18:12:47.279Z,7.91
2023-02-15T18:15:14.836Z,7.39
2023-02-15T18:17:46.975Z,6.79
2023-02-15T18:20:19.604Z,7.82
2023-02-15T18:22:48.031Z,7.78
2023-02-15T18:25:17.626Z,7.39
2023-02-15T18:27:44.527Z,6.59
2023-02-15T18:30:15.741Z,6.92
2023-02-15T18:32:43.412Z,6.97
2023-02-15T18:35:15.048Z,7.60
2023-02-15T18:37:41.967Z,7.43
2023-02-15T18:40:15.443Z,7.54
2023-02-15T18:42:43.489Z,7.51
2023-02-15T18:45:15.848Z,7.50
2023-02-15T18:47:42.847Z,7.47
2023-02-15T18:50:09.854Z,7.46
2023-02-15T18:52:38.596Z,7.35
2023-02-15T18:55:18.048Z,7.26
2023-02-15T18:57:45.485Z,7.21
2023-02-15T19:00:16.119Z,7.39
2023-02-15T19:02:43.416Z,7.32
2023-02-15T19:05:10.580Z,6.85
2023-02-15T19:07:38.347Z,7.35
2023-02-15T19:10:08.463Z,7.07
2023-02-15T19:12:36.548Z,7.07
2023-02-15T19:15:03.489Z,6.71
2023-02-15T19:17:30.294Z,7.34
2023-02-15T19:19:57.359Z,7.33
2023-02-15T19:22:27.120Z,6.96
2023-02-15T19:24:56.000Z,6.90
2023-02-15T19:27:26.487Z,7.33
2023-02-15T19:29:57.266Z,7.32
2023-02-15T19:32:24.298Z,7.31
2023-02-15T19:34:51.730Z,6.59
2023-02-15T19:37:24.651Z,7.32
2023-02-15T19:39:52.182Z,7.34
2023-02-15T19:42:22.160Z,6.67
2023-02-15T19:44:48.991Z,7.35
2023-02-15T19:47:18.078Z,6.23
2023-02-15T19:49:46.200Z,7.14
2023-02-15T19:52:17.582Z,6.74
2023-02-15T19:54:46.198Z,7.33
2023-02-15T19:57:14.939Z,6.26
2023-02-15T19:59:42.221Z,6.65
2023-02-15T20:02:13.767Z,6.54
2023-02-15T20:04:42.421Z,6.83
2023-02-15T20:07:18.092Z,7.40
2023-02-15T20:09:46.227Z,6.78
2023-02-15T20:12:21.243Z,7.37
2023-02-15T20:14:48.305Z,7.38
2023-02-15T20:17:20.198Z,7.35
2023-02-15T20:19:48.917Z,7.35
2023-02-15T20:22:24.992Z,6.96
2023-02-15T20:24:53.417Z,6.75
2023-02-15T20:27:20.407Z,6.69
2023-02-15T20:29:49.176Z,6.48
2023-02-15T20:32:16.345Z,6.31
2023-02-15T20:34:43.241Z,7.29
2023-02-15T20:37:24.056Z,7.27
2023-02-15T20:39:52.351Z,7.25
2023-02-15T20:42:19.798Z,7.23
2023-02-15T20:44:46.739Z,7.23
2023-02-15T20:47:14.384Z,7.20
2023-02-15T20:49:41.318Z,6.45
2023-02-15T20:52:22.712Z,6.38
2023-02-15T20:54:52.528Z,7.06
2023-02-15T20:57:30.222Z,6.03
2023-02-15T20:59:57.175Z,6.81
2023-02-15T21:02:26.085Z,6.80
2023-02-15T21:05:19.872Z,6.19
2023-02-15T21:07:54.253Z,6.53
2023-02-15T21:11:03.691Z,5.78
2023-02-15T21:13:50.602Z,6.35
2023-02-15T21:16:24.344Z,6.58
2023-02-15T21:18:57.359Z,6.27
2023-02-15T21:21:53.921Z,6.13
2023-02-15T21:27:35.783Z,6.99
2023-02-15T21:30:07.137Z,6.84
2023-02-15T21:32:34.753Z,6.90
2023-02-15T21:35:03.274Z,6.93
2023-02-15T21:37:36.242Z,6.89
2023-02-15T21:40:16.788Z,6.79
2023-02-15T21:42:45.376Z,6.86
2023-02-15T21:45:17.417Z,6.79
2023-02-15T21:47:45.427Z,6.83
2023-02-15T21:50:15.393Z,6.80
2023-02-15T21:52:43.355Z,6.79
2023-02-15T21:55:14.535Z,6.73
2023-02-15T21:57:42.650Z,6.75
2023-02-15T22:00:14.772Z,6.59
2023-02-15T22:02:43.323Z,6.68
2023-02-15T22:05:13.945Z,6.64
2023-02-15T22:07:40.631Z,6.62
2023-02-15T22:10:07.940Z,6.62
2023-02-15T22:12:36.674Z,6.58
2023-02-15T22:15:04.732Z,6.53
2023-02-15T22:17:31.962Z,6.56
2023-02-15T22:19:58.808Z,6.40
2023-02-15T22:22:26.857Z,6.53
2023-02-15T22:24:53.625Z,6.44
2023-02-15T22:27:22.806Z,6.47
2023-02-15T22:29:54.730Z,6.45
2023-02-15T22:32:24.319Z,6.44
2023-02-15T22:34:52.522Z,6.44
2023-02-15T22:37:19.669Z,6.29
2023-02-15T22:39:46.828Z,6.39
2023-02-15T22:42:22.647Z,6.15
2023-02-15T22:44:49.366Z,6.38
2023-02-15T22:47:21.206Z,6.35
2023-02-15T22:49:48.016Z,6.26
2023-02-15T22:52:15.801Z,6.15
2023-02-15T22:54:43.908Z,6.25
2023-02-15T22:57:18.337Z,6.24
2023-02-15T22:59:48.322Z,6.27
2023-02-15T23:02:15.612Z,6.24
2023-02-15T23:04:43.834Z,6.22
2023-02-15T23:07:14.336Z,6.14
2023-02-15T23:09:41.354Z,5.36
2023-02-15T23:12:25.459Z,5.69
2023-02-15T23:14:54.435Z,6.15
2023-02-15T23:17:21.898Z,5.08
2023-02-15T23:19:50.496Z,6.13
2023-02-15T23:22:21.472Z,6.10
2023-02-15T23:24:52.634Z,5.57
2023-02-15T23:27:19.371Z,6.04
2023-02-15T23:29:46.295Z,5.49
2023-02-15T23:32:15.347Z,6.03
2023-02-15T23:34:43.101Z,5.90
2023-02-15T23:37:13.081Z,5.99
2023-02-15T23:39:40.176Z,5.95
2023-02-15T23:42:13.564Z,5.94
2023-02-15T23:44:42.179Z,5.35
2023-02-15T23:47:21.704Z,5.86
2023-02-15T23:49:48.767Z,5.78
2023-02-15T23:52:16.905Z,5.85
2023-02-15T23:54:43.657Z,5.84
2023-02-15T23:57:14.205Z,5.73
2023-02-15T23:59:43.717Z,5.75
